Index of /documents/NL.IMRO.0141.BP00046-0401/


../
NL.IMRO.0141.BP00046-0401.css                      09-Jul-2013 22:09               27353
NL.IMRO.0141.BP00046-0401.gml                      09-Jul-2013 22:09             1382948
NL.IMRO.0141.BP00046-0401_Index.html               09-Jul-2013 22:09                9115
RotekstTemplate.css                                09-Jul-2013 22:09                2534
g_NL.IMRO.0141.BP00046-0401.xml                    09-Jul-2013 22:09               16257
manifest.xml                                       09-Jul-2013 22:09               44940
manifest.xml.20130828_000608.dossier_change.xml    27-Aug-2013 22:06               45473
r_NL.IMRO.0141.BP00046-0401_0001Regels.html        09-Jul-2013 22:09              313300
r_NL.IMRO.0141.BP00046-0401_0002Inleidenderegel..> 09-Jul-2013 22:09               29258
r_NL.IMRO.0141.BP00046-0401_0003Begrippen.html     09-Jul-2013 22:09               26061
r_NL.IMRO.0141.BP00046-0401_0004Wijzevanmeten.html 09-Jul-2013 22:09                5663
r_NL.IMRO.0141.BP00046-0401_0005Bestemmingsrege..> 09-Jul-2013 22:09              265542
r_NL.IMRO.0141.BP00046-0401_0006Bedrijf2.html      09-Jul-2013 22:09               25616
r_NL.IMRO.0141.BP00046-0401_0007Bedrijf31.html     09-Jul-2013 22:09               23409
r_NL.IMRO.0141.BP00046-0401_0008Bedrijf32.html     09-Jul-2013 22:09               21858
r_NL.IMRO.0141.BP00046-0401_0009BedrijfVerkoopp..> 09-Jul-2013 22:09               13771
r_NL.IMRO.0141.BP00046-0401_0010Gemengd1.html      09-Jul-2013 22:09               25219
r_NL.IMRO.0141.BP00046-0401_0011Gemengd2.html      09-Jul-2013 22:09               25320
r_NL.IMRO.0141.BP00046-0401_0012Gemengd3.html      09-Jul-2013 22:09               25387
r_NL.IMRO.0141.BP00046-0401_0013Groen.html         09-Jul-2013 22:09                9102
r_NL.IMRO.0141.BP00046-0401_0014Sport.html         09-Jul-2013 22:09                8128
r_NL.IMRO.0141.BP00046-0401_0015Tuin.html          09-Jul-2013 22:09                6642
r_NL.IMRO.0141.BP00046-0401_0016Verkeer1.html      09-Jul-2013 22:09                8995
r_NL.IMRO.0141.BP00046-0401_0017Verkeer2.html      09-Jul-2013 22:09                8227
r_NL.IMRO.0141.BP00046-0401_0018Wonen.html         09-Jul-2013 22:09               21326
r_NL.IMRO.0141.BP00046-0401_0019WonenStadsrand...> 09-Jul-2013 22:09               19566
r_NL.IMRO.0141.BP00046-0401_0020LeidingGas.html    09-Jul-2013 22:09                8787
r_NL.IMRO.0141.BP00046-0401_0021LeidingHoogspan..> 09-Jul-2013 22:09                9354
r_NL.IMRO.0141.BP00046-0401_0022LeidingHoogspan..> 09-Jul-2013 22:09                9195
r_NL.IMRO.0141.BP00046-0401_0023LeidingRiool.html  09-Jul-2013 22:09                8773
r_NL.IMRO.0141.BP00046-0401_0024LeidingWater.html  09-Jul-2013 22:09                8856
r_NL.IMRO.0141.BP00046-0401_0025WaardeArcheolog..> 09-Jul-2013 22:09               10216
r_NL.IMRO.0141.BP00046-0401_0026WaardeArcheolog..> 09-Jul-2013 22:09               10243
r_NL.IMRO.0141.BP00046-0401_0027WaardeWaardevol..> 09-Jul-2013 22:09               12696
r_NL.IMRO.0141.BP00046-0401_0028Algemeneregels...> 09-Jul-2013 22:09               19148
r_NL.IMRO.0141.BP00046-0401_0029Antidubbeltelre..> 09-Jul-2013 22:09                3024
r_NL.IMRO.0141.BP00046-0401_0030Algemenegebruik..> 09-Jul-2013 22:09                3498
r_NL.IMRO.0141.BP00046-0401_0031Algemeneaanduid..> 09-Jul-2013 22:09                8653
r_NL.IMRO.0141.BP00046-0401_0032Algemeneafwijki..> 09-Jul-2013 22:09               10064
r_NL.IMRO.0141.BP00046-0401_0033Algemeneprocedu..> 09-Jul-2013 22:09                4278
r_NL.IMRO.0141.BP00046-0401_0034Overgangsenslot..> 09-Jul-2013 22:09                6593
r_NL.IMRO.0141.BP00046-0401_0035Overgangsrecht...> 09-Jul-2013 22:09                6134
r_NL.IMRO.0141.BP00046-0401_0036Slotregel.html     09-Jul-2013 22:09                2911
r_NL.IMRO.0141.BP00046-0401_0037Bijlagenbijdere..> 09-Jul-2013 22:09                3256
rb_NL.IMRO.0141.BP00046-0401_0039Bijlagenbijder..> 09-Jul-2013 22:09                3071
rb_NL.IMRO.0141.BP00046-0401_01.pdf                09-Jul-2013 22:09              104368
rb_NL.IMRO.0141.BP00046-0401_02.pdf                09-Jul-2013 22:09              699102
t_NL.IMRO.0141.BP00046-0401_0000Toelichting.pdf    09-Jul-2013 22:09             4360212
tb_NL.IMRO.0141.BP00046-0401.pdf                   09-Jul-2013 22:09              436698
tb_NL.IMRO.0141.BP00046-0401_0038Bijlagenbijdet..> 09-Jul-2013 22:09                2902
vb_NL.IMRO.0141.BP00046-0401.pdf                   09-Jul-2013 22:09              162529